createdAt,value
2018-09-03T00:00:06.062Z,0.00
2018-09-03T00:01:06.101Z,0.00
2018-09-03T00:02:06.064Z,0.00
2018-09-03T00:03:06.252Z,0.00
2018-09-03T00:04:06.360Z,0.00
2018-09-03T00:05:06.398Z,0.00
2018-09-03T00:06:06.742Z,0.00
2018-09-03T00:07:06.332Z,0.00
2018-09-03T00:08:06.404Z,0.00
2018-09-03T00:09:06.211Z,0.00
2018-09-03T00:10:06.174Z,0.00
2018-09-03T00:11:06.186Z,0.00
2018-09-03T00:12:06.210Z,0.00
2018-09-03T00:13:06.223Z,0.00
2018-09-03T00:14:06.243Z,0.00
2018-09-03T00:15:06.248Z,0.00
2018-09-03T00:16:06.271Z,0.00
2018-09-03T00:17:06.279Z,0.00
2018-09-03T00:18:06.296Z,0.00
2018-09-03T00:19:06.310Z,0.00
2018-09-03T00:20:06.326Z,0.00
2018-09-03T00:21:06.346Z,0.00
2018-09-03T00:22:06.361Z,0.00
2018-09-03T00:23:06.371Z,0.00
2018-09-03T00:24:06.399Z,0.00
2018-09-03T00:25:06.408Z,0.00
2018-09-03T00:26:06.420Z,0.00
2018-09-03T00:27:06.435Z,0.00
2018-09-03T00:28:06.452Z,0.00
2018-09-03T00:29:06.470Z,0.00
2018-09-03T00:30:06.481Z,0.00
2018-09-03T00:31:06.500Z,0.00
2018-09-03T00:32:06.519Z,0.00
2018-09-03T00:33:06.527Z,0.00
2018-09-03T00:34:06.546Z,0.00
2018-09-03T00:35:06.557Z,0.00
2018-09-03T00:36:06.572Z,0.00
2018-09-03T00:37:06.757Z,0.00
2018-09-03T00:38:06.922Z,0.00
2018-09-03T00:39:06.683Z,0.00
2018-09-03T00:40:06.649Z,0.00
2018-09-03T00:41:06.651Z,0.00
2018-09-03T00:42:06.664Z,0.00
2018-09-03T00:43:06.679Z,0.00
2018-09-03T00:44:06.695Z,0.00
2018-09-03T00:45:06.715Z,0.00
2018-09-03T00:46:06.731Z,0.00
2018-09-03T00:47:06.749Z,0.00
2018-09-03T00:48:06.799Z,0.00
2018-09-03T00:49:06.797Z,0.00
2018-09-03T00:50:06.790Z,0.00
2018-09-03T00:51:06.811Z,0.00
2018-09-03T00:52:06.832Z,0.00
2018-09-03T00:53:06.835Z,0.00
2018-09-03T00:54:06.851Z,0.00
2018-09-03T00:55:06.869Z,0.00
2018-09-03T00:56:06.884Z,0.00
2018-09-03T00:57:06.903Z,0.00
2018-09-03T00:58:06.913Z,0.00
2018-09-03T00:59:06.934Z,0.00
2018-09-03T01:00:06.942Z,0.00
2018-09-03T01:01:06.958Z,0.00
2018-09-03T01:02:06.975Z,0.00
2018-09-03T01:03:06.986Z,0.00
2018-09-03T01:04:07.018Z,0.00
2018-09-03T01:05:07.022Z,0.00
2018-09-03T01:06:07.047Z,0.00
2018-09-03T01:07:07.049Z,0.00
2018-09-03T01:08:07.065Z,0.00
2018-09-03T01:09:07.081Z,0.00
2018-09-03T01:10:07.096Z,0.00
2018-09-03T01:11:07.284Z,0.00
2018-09-03T01:12:07.485Z,0.00
2018-09-03T01:13:07.143Z,0.00
2018-09-03T01:14:07.160Z,0.00
2018-09-03T01:15:07.177Z,0.00
2018-09-03T01:16:07.189Z,0.00
2018-09-03T01:17:07.316Z,0.00
2018-09-03T01:18:07.222Z,0.00
2018-09-03T01:19:07.249Z,0.00
2018-09-03T01:20:07.289Z,0.00
2018-09-03T01:21:07.275Z,0.00
2018-09-03T01:22:07.279Z,0.00
2018-09-03T01:23:07.304Z,0.00
2018-09-03T01:24:07.309Z,0.00
2018-09-03T01:25:07.325Z,0.00
2018-09-03T01:26:07.340Z,0.00
2018-09-03T01:27:07.354Z,0.00
2018-09-03T01:28:07.370Z,0.00
2018-09-03T01:29:07.393Z,0.00
2018-09-03T01:30:07.403Z,0.00
2018-09-03T01:31:07.423Z,0.00
2018-09-03T01:32:07.430Z,0.00
2018-09-03T01:33:07.447Z,0.00
2018-09-03T01:34:07.464Z,0.00
2018-09-03T01:35:07.478Z,0.00
2018-09-03T01:36:07.495Z,0.00
2018-09-03T01:37:07.515Z,0.00
2018-09-03T01:38:07.530Z,0.00
2018-09-03T01:39:07.543Z,0.00
2018-09-03T01:40:07.558Z,0.00
2018-09-03T01:41:07.570Z,0.00
2018-09-03T01:42:07.586Z,0.00
2018-09-03T01:43:07.652Z,0.00
2018-09-03T01:44:07.804Z,0.00
2018-09-03T01:45:07.721Z,0.00
2018-09-03T01:46:07.653Z,0.00
2018-09-03T01:47:07.662Z,0.00
2018-09-03T01:48:07.676Z,0.00
2018-09-03T01:49:07.694Z,0.00
2018-09-03T01:50:07.707Z,0.00
2018-09-03T01:51:07.722Z,0.00
2018-09-03T01:52:07.744Z,0.00
2018-09-03T01:53:07.755Z,0.00
2018-09-03T01:54:07.768Z,0.00
2018-09-03T01:55:07.787Z,0.00
2018-09-03T01:56:07.803Z,0.00
2018-09-03T01:57:07.815Z,0.00
2018-09-03T01:58:07.829Z,0.00
2018-09-03T01:59:07.844Z,0.00
2018-09-03T02:00:07.872Z,0.00
2018-09-03T02:01:07.877Z,0.00
2018-09-03T02:02:07.925Z,0.00
2018-09-03T02:03:07.905Z,0.00
2018-09-03T02:04:07.926Z,0.00
2018-09-03T02:05:07.939Z,0.00
2018-09-03T02:06:07.972Z,0.00
2018-09-03T02:07:07.969Z,0.00
2018-09-03T02:08:07.983Z,0.00
2018-09-03T02:09:07.996Z,0.00
2018-09-03T02:10:08.019Z,0.00
2018-09-03T02:11:08.028Z,0.00
2018-09-03T02:12:08.043Z,0.00
2018-09-03T02:13:08.060Z,0.00
2018-09-03T02:14:08.075Z,0.00
2018-09-03T02:15:08.090Z,0.00
2018-09-03T02:16:08.106Z,0.00
2018-09-03T02:17:08.174Z,0.00
2018-09-03T02:18:08.652Z,0.00
2018-09-03T02:19:08.180Z,0.00
2018-09-03T02:20:08.170Z,0.00
2018-09-03T02:21:08.183Z,0.00
2018-09-03T02:22:08.195Z,0.00
2018-09-03T02:23:08.213Z,0.00
2018-09-03T02:24:08.228Z,0.00
2018-09-03T02:25:08.242Z,0.00
2018-09-03T02:26:08.249Z,0.00
2018-09-03T02:27:08.264Z,0.00
2018-09-03T02:28:08.282Z,0.00
2018-09-03T02:29:08.296Z,0.00
2018-09-03T02:30:08.311Z,0.00
2018-09-03T02:31:08.328Z,0.00
2018-09-03T02:32:08.342Z,0.00
2018-09-03T02:33:08.357Z,0.00
2018-09-03T02:34:08.372Z,0.00
2018-09-03T02:35:08.388Z,0.00
2018-09-03T02:36:08.410Z,0.00
2018-09-03T02:37:08.418Z,0.00
2018-09-03T02:38:08.434Z,0.00
2018-09-03T02:39:08.448Z,0.00
2018-09-03T02:40:08.464Z,0.00
2018-09-03T02:41:08.480Z,0.00
2018-09-03T02:42:08.501Z,0.00
2018-09-03T02:43:08.510Z,0.00
2018-09-03T02:44:08.526Z,0.00
2018-09-03T02:45:08.542Z,0.00
2018-09-03T02:46:08.556Z,0.00
2018-09-03T02:47:08.571Z,0.00
2018-09-03T02:48:08.586Z,0.00
2018-09-03T02:49:08.601Z,0.00
2018-09-03T02:50:08.619Z,0.00
2018-09-03T02:51:08.632Z,0.00
2018-09-03T02:52:08.660Z,0.00
2018-09-03T02:53:08.739Z,0.00
2018-09-03T02:54:08.678Z,0.00
2018-09-03T02:55:08.702Z,0.00
2018-09-03T02:56:08.708Z,0.00
2018-09-03T02:57:08.724Z,0.00
2018-09-03T02:58:08.743Z,0.00
2018-09-03T02:59:08.762Z,0.00
2018-09-03T03:00:08.770Z,0.00
2018-09-03T03:01:08.795Z,0.00
2018-09-03T03:02:08.800Z,0.00
2018-09-03T03:03:08.822Z,0.00
2018-09-03T03:04:08.828Z,0.00
2018-09-03T03:05:08.846Z,0.00
2018-09-03T03:06:08.874Z,0.00
2018-09-03T03:07:08.876Z,0.00
2018-09-03T03:08:08.890Z,0.00
2018-09-03T03:09:08.908Z,0.00
2018-09-03T03:10:08.923Z,0.00
2018-09-03T03:11:08.936Z,0.00
2018-09-03T03:12:08.965Z,0.00
2018-09-03T03:13:08.968Z,0.00
2018-09-03T03:14:08.983Z,0.00
2018-09-03T03:15:08.996Z,0.00
2018-09-03T03:16:09.021Z,0.00
2018-09-03T03:17:09.030Z,0.00
2018-09-03T03:18:09.043Z,0.00
2018-09-03T03:19:09.061Z,0.00
2018-09-03T03:20:09.073Z,0.00
2018-09-03T03:21:09.093Z,0.00
2018-09-03T03:22:09.108Z,0.00
2018-09-03T03:23:09.221Z,0.00
2018-09-03T03:24:09.142Z,0.00
2018-09-03T03:25:09.276Z,0.00
2018-09-03T03:26:09.167Z,0.00
2018-09-03T03:27:09.186Z,0.00
2018-09-03T03:28:09.195Z,0.00
2018-09-03T03:29:09.210Z,0.00
2018-09-03T03:30:09.227Z,0.00
2018-09-03T03:31:09.243Z,0.00
2018-09-03T03:32:09.259Z,0.00
2018-09-03T03:33:09.273Z,0.00
2018-09-03T03:34:09.287Z,0.00
2018-09-03T03:35:09.307Z,0.00
2018-09-03T03:36:09.318Z,0.00
2018-09-03T03:37:09.333Z,0.00
2018-09-03T03:38:09.348Z,0.00
2018-09-03T03:39:09.363Z,0.00
2018-09-03T03:40:09.380Z,0.00
2018-09-03T03:41:09.394Z,0.00
2018-09-03T03:42:09.409Z,0.00
2018-09-03T03:43:09.425Z,0.00
2018-09-03T03:44:09.438Z,0.00
2018-09-03T03:45:09.455Z,0.00
2018-09-03T03:46:09.470Z,0.00
2018-09-03T03:47:09.484Z,0.00
2018-09-03T03:48:09.499Z,0.00
2018-09-03T03:49:09.524Z,0.00
2018-09-03T03:50:09.530Z,0.00
2018-09-03T03:51:09.545Z,0.00
2018-09-03T03:52:09.561Z,0.00
2018-09-03T03:53:09.576Z,0.00
2018-09-03T03:54:09.602Z,0.00
2018-09-03T03:55:09.630Z,0.00
2018-09-03T03:56:09.620Z,0.00
2018-09-03T03:57:09.636Z,4.00
2018-09-03T03:58:09.728Z,0.00
2018-09-03T03:59:09.664Z,4.00
2018-09-03T04:00:09.682Z,4.00
2018-09-03T04:01:09.769Z,4.00
2018-09-03T04:02:09.743Z,4.00
2018-09-03T04:03:09.750Z,4.00
2018-09-03T04:04:09.743Z,4.00
2018-09-03T04:05:09.759Z,4.00
2018-09-03T04:06:10.164Z,4.00
2018-09-03T04:07:09.798Z,4.00
2018-09-03T04:08:09.802Z,4.00
2018-09-03T04:09:09.820Z,4.00
2018-09-03T04:10:09.833Z,4.00
2018-09-03T04:11:09.848Z,4.00
2018-09-03T04:12:09.864Z,4.00
2018-09-03T04:13:09.880Z,4.00
2018-09-03T04:14:09.897Z,4.00
2018-09-03T04:15:09.911Z,4.00
2018-09-03T04:16:09.986Z,4.00
2018-09-03T04:17:09.940Z,4.00
2018-09-03T04:18:09.963Z,0.00
2018-09-03T04:19:10.009Z,4.00
2018-09-03T04:20:10.152Z,4.00
2018-09-03T04:21:10.122Z,4.00
2018-09-03T04:22:10.241Z,4.00
2018-09-03T04:23:10.230Z,4.00
2018-09-03T04:24:10.046Z,4.00
2018-09-03T04:25:10.065Z,8.00
2018-09-03T04:26:10.078Z,4.00
2018-09-03T04:27:10.109Z,8.00
2018-09-03T04:28:10.182Z,12.00
2018-09-03T04:29:10.501Z,8.00
2018-09-03T04:30:10.147Z,8.00
2018-09-03T04:31:10.181Z,12.00
2018-09-03T04:32:10.173Z,8.00
2018-09-03T04:33:10.189Z,12.00
2018-09-03T04:34:10.213Z,12.00
2018-09-03T04:35:10.215Z,12.00
2018-09-03T04:36:10.227Z,12.00
2018-09-03T04:37:10.275Z,12.00
2018-09-03T04:38:10.258Z,16.00
2018-09-03T04:39:10.271Z,20.00
2018-09-03T04:40:10.293Z,20.00
2018-09-03T04:41:10.305Z,24.00
2018-09-03T04:42:10.324Z,24.00
2018-09-03T04:43:10.334Z,24.00
2018-09-03T04:44:10.363Z,24.00
2018-09-03T04:45:10.368Z,32.00
2018-09-03T04:46:10.480Z,32.00
2018-09-03T04:47:10.396Z,32.00
2018-09-03T04:48:10.483Z,32.00
2018-09-03T04:49:11.516Z,32.00
2018-09-03T04:50:10.543Z,32.00
2018-09-03T04:51:10.456Z,32.00
2018-09-03T04:52:10.480Z,32.00
2018-09-03T04:53:10.490Z,36.00
2018-09-03T04:54:10.511Z,44.00
2018-09-03T04:55:10.594Z,48.00
2018-09-03T04:56:10.532Z,56.00
2018-09-03T04:57:10.549Z,64.00
2018-09-03T04:58:10.564Z,76.00
2018-09-03T04:59:10.577Z,80.00
2018-09-03T05:00:10.591Z,84.00
2018-09-03T05:02:10.813Z,92.00
2018-09-03T05:04:10.866Z,100.00
2018-09-03T05:05:12.877Z,112.00
2018-09-03T05:06:10.714Z,116.00
2018-09-03T05:07:10.707Z,132.00
2018-09-03T05:08:10.727Z,140.00
2018-09-03T05:09:10.729Z,152.00
2018-09-03T05:10:10.799Z,164.00
2018-09-03T05:11:11.000Z,180.00
2018-09-03T05:12:10.905Z,196.00
2018-09-03T05:13:10.817Z,212.00
2018-09-03T05:14:10.826Z,224.00
2018-09-03T05:15:10.884Z,236.00
2018-09-03T05:16:11.239Z,248.00
2018-09-03T05:17:10.850Z,256.00
2018-09-03T05:18:10.865Z,268.00
2018-09-03T05:19:11.050Z,272.00
2018-09-03T05:20:11.283Z,276.00
2018-09-03T05:21:10.928Z,284.00
2018-09-03T05:23:11.178Z,292.00
2018-09-03T05:24:11.003Z,296.00
2018-09-03T05:25:10.977Z,296.00
2018-09-03T05:26:11.170Z,296.00
2018-09-03T05:27:11.004Z,292.00
2018-09-03T05:28:11.095Z,292.00
2018-09-03T05:29:11.908Z,296.00
2018-09-03T05:31:11.120Z,296.00
2018-09-03T05:32:11.363Z,296.00
2018-09-03T05:33:11.206Z,300.00
2018-09-03T05:34:11.286Z,304.00
2018-09-03T05:35:11.257Z,312.00
2018-09-03T05:36:11.160Z,320.00
2018-09-03T05:37:11.276Z,316.00
2018-09-03T05:38:11.189Z,312.00
2018-09-03T05:39:11.353Z,312.00
2018-09-03T05:40:11.314Z,316.00
2018-09-03T05:41:11.221Z,324.00
2018-09-03T05:42:11.224Z,332.00
2018-09-03T05:43:11.344Z,336.00
2018-09-03T05:44:11.938Z,348.00
2018-09-03T05:45:11.277Z,364.00
2018-09-03T05:46:11.300Z,388.00
2018-09-03T05:47:11.302Z,412.00
2018-09-03T05:48:11.326Z,436.00
2018-09-03T05:49:11.332Z,460.00
2018-09-03T05:50:11.409Z,480.00
2018-09-03T05:51:11.364Z,488.00
2018-09-03T05:52:11.377Z,504.00
2018-09-03T05:53:11.400Z,512.00
2018-09-03T05:54:11.414Z,516.00
2018-09-03T05:55:11.435Z,516.00
2018-09-03T05:56:11.487Z,504.00
2018-09-03T05:57:11.452Z,484.00
2018-09-03T05:58:11.468Z,460.00
2018-09-03T05:59:11.509Z,440.00
2018-09-03T06:00:11.497Z,436.00
2018-09-03T06:01:11.523Z,448.00
2018-09-03T06:02:11.531Z,456.00
2018-09-03T06:03:11.542Z,456.00
2018-09-03T06:04:11.560Z,444.00
2018-09-03T06:05:11.573Z,424.00
2018-09-03T06:06:11.592Z,396.00
2018-09-03T06:07:11.603Z,364.00
2018-09-03T06:08:11.618Z,328.00
2018-09-03T06:09:11.646Z,304.00
2018-09-03T06:10:12.054Z,304.00
2018-09-03T06:11:11.723Z,304.00
2018-09-03T06:12:11.835Z,308.00
2018-09-03T06:14:11.979Z,332.00
2018-09-03T06:15:11.725Z,352.00
2018-09-03T06:16:11.739Z,384.00
2018-09-03T06:17:11.779Z,412.00
2018-09-03T06:18:11.780Z,420.00
2018-09-03T06:19:11.785Z,408.00
2018-09-03T06:20:11.801Z,388.00
2018-09-03T06:21:11.834Z,356.00
2018-09-03T06:22:12.145Z,328.00
2018-09-03T06:23:11.858Z,320.00
2018-09-03T06:24:11.869Z,332.00
2018-09-03T06:25:11.876Z,368.00
2018-09-03T06:26:11.957Z,400.00
2018-09-03T06:27:11.910Z,444.00
2018-09-03T06:28:11.933Z,500.00
2018-09-03T06:29:11.996Z,552.00
2018-09-03T06:30:12.995Z,576.00
2018-09-03T06:31:11.988Z,572.00
2018-09-03T06:32:11.985Z,552.00
2018-09-03T06:33:12.018Z,536.00
2018-09-03T06:34:12.016Z,568.00
2018-09-03T06:35:12.027Z,632.00
2018-09-03T06:36:12.045Z,728.00
2018-09-03T06:37:12.060Z,840.00
2018-09-03T06:38:12.260Z,956.00
2018-09-03T06:39:12.118Z,1056.00
2018-09-03T06:40:12.113Z,1100.00
2018-09-03T06:41:12.182Z,1096.00
2018-09-03T06:42:12.138Z,1056.00
2018-09-03T06:43:12.157Z,988.00
2018-09-03T06:44:12.334Z,944.00
2018-09-03T06:45:12.189Z,936.00
2018-09-03T06:46:12.195Z,924.00
2018-09-03T06:47:12.320Z,860.00
2018-09-03T06:49:12.262Z,692.00
2018-09-03T06:50:12.254Z,632.00
2018-09-03T06:51:12.273Z,600.00
2018-09-03T06:52:12.286Z,568.00
2018-09-03T06:53:12.643Z,548.00
2018-09-03T06:54:12.320Z,528.00
2018-09-03T06:55:12.332Z,524.00
2018-09-03T06:56:12.346Z,504.00
2018-09-03T06:57:12.365Z,460.00
2018-09-03T06:58:12.399Z,436.00
2018-09-03T06:59:12.397Z,448.00
2018-09-03T07:00:12.408Z,476.00
2018-09-03T07:01:12.468Z,524.00
2018-09-03T07:02:12.448Z,580.00
2018-09-03T07:03:12.466Z,632.00
2018-09-03T07:04:12.469Z,652.00
2018-09-03T07:05:12.530Z,656.00
2018-09-03T07:06:12.527Z,648.00
2018-09-03T07:07:12.580Z,644.00
2018-09-03T07:08:12.525Z,644.00
2018-09-03T07:09:12.550Z,644.00
2018-09-03T07:10:12.556Z,624.00
2018-09-03T07:11:12.957Z,592.00
2018-09-03T07:12:12.585Z,568.00
2018-09-03T07:14:13.332Z,496.00
2018-09-03T07:15:12.636Z,436.00
2018-09-03T07:17:12.901Z,336.00
2018-09-03T07:18:12.676Z,292.00
2018-09-03T07:19:12.802Z,268.00
2018-09-03T07:20:12.773Z,256.00
2018-09-03T07:21:12.723Z,252.00
2018-09-03T07:22:12.754Z,260.00
2018-09-03T07:23:12.755Z,272.00
2018-09-03T07:24:12.775Z,288.00
2018-09-03T07:25:12.792Z,316.00
2018-09-03T07:26:12.804Z,348.00
2018-09-03T07:27:12.813Z,412.00
2018-09-03T07:28:12.831Z,504.00
2018-09-03T07:29:12.844Z,596.00
2018-09-03T07:30:12.868Z,704.00
2018-09-03T07:31:12.876Z,792.00
2018-09-03T07:32:12.917Z,852.00
2018-09-03T07:33:12.905Z,884.00
2018-09-03T07:34:12.922Z,872.00
2018-09-03T07:35:13.050Z,796.00
2018-09-03T07:36:12.954Z,700.00
2018-09-03T07:37:13.017Z,616.00
2018-09-03T07:38:12.981Z,568.00
2018-09-03T07:39:12.999Z,548.00
2018-09-03T07:40:13.017Z,516.00
2018-09-03T07:41:13.032Z,484.00
2018-09-03T07:42:13.051Z,464.00
2018-09-03T07:43:13.063Z,484.00
2018-09-03T07:44:13.080Z,540.00
2018-09-03T07:45:13.089Z,612.00
2018-09-03T07:46:13.423Z,700.00
2018-09-03T07:47:13.324Z,792.00
2018-09-03T07:48:13.164Z,860.00
2018-09-03T07:49:13.156Z,888.00
2018-09-03T07:50:13.165Z,884.00
2018-09-03T07:51:13.190Z,896.00
2018-09-03T07:53:13.601Z,968.00
2018-09-03T07:54:13.226Z,1060.00
2018-09-03T07:55:13.243Z,1252.00
2018-09-03T07:56:13.407Z,1596.00
2018-09-03T07:57:13.299Z,2044.00
2018-09-03T07:58:13.297Z,2464.00
2018-09-03T07:59:13.299Z,2792.00
2018-09-03T08:00:13.326Z,2912.00
2018-09-03T08:01:15.149Z,2960.00
2018-09-03T08:02:14.602Z,2968.00
2018-09-03T08:03:14.166Z,2916.00
2018-09-03T08:04:14.610Z,2860.00
2018-09-03T08:06:13.787Z,2776.00
2018-09-03T08:07:14.108Z,2596.00
2018-09-03T08:08:13.440Z,2364.00
2018-09-03T08:09:13.457Z,2096.00
2018-09-03T08:10:13.472Z,1876.00
2018-09-03T08:11:13.592Z,1768.00
2018-09-03T08:13:13.517Z,1928.00
2018-09-03T08:14:13.531Z,2068.00
2018-09-03T08:15:13.552Z,2240.00
2018-09-03T08:16:13.588Z,2388.00
2018-09-03T08:17:13.581Z,2496.00
2018-09-03T08:18:13.595Z,2616.00
2018-09-03T08:19:13.610Z,2700.00
2018-09-03T08:20:13.624Z,2800.00
2018-09-03T08:21:13.646Z,3068.00
2018-09-03T08:22:13.659Z,3320.00
2018-09-03T08:23:13.672Z,3452.00
2018-09-03T08:24:13.689Z,3684.00
2018-09-03T08:25:13.946Z,3564.00
2018-09-03T08:26:13.803Z,3776.00
2018-09-03T08:27:13.870Z,3932.00
2018-09-03T08:29:13.767Z,3728.00
2018-09-03T08:30:13.800Z,3720.00
2018-09-03T08:31:13.830Z,3512.00
2018-09-03T08:32:13.884Z,3412.00
2018-09-03T08:34:13.949Z,2880.00
2018-09-03T08:35:14.637Z,2692.00
2018-09-03T08:36:14.017Z,2796.00
2018-09-03T08:37:13.937Z,3060.00
2018-09-03T08:38:14.119Z,3268.00
2018-09-03T08:39:14.060Z,3472.00
2018-09-03T08:40:13.991Z,3788.00
2018-09-03T08:41:13.956Z,3652.00
2018-09-03T08:42:14.007Z,3384.00
2018-09-03T08:43:14.029Z,3212.00
2018-09-03T08:44:14.021Z,3148.00
2018-09-03T08:45:14.067Z,3184.00
2018-09-03T08:46:14.073Z,3224.00
2018-09-03T08:47:14.073Z,3140.00
2018-09-03T08:48:14.075Z,2956.00
2018-09-03T08:49:14.113Z,2756.00
2018-09-03T08:50:14.262Z,2632.00
2018-09-03T08:51:14.328Z,2636.00
2018-09-03T08:52:14.129Z,2724.00
2018-09-03T08:53:14.144Z,2832.00
2018-09-03T08:54:14.161Z,2900.00
2018-09-03T08:55:14.183Z,2936.00
2018-09-03T08:56:14.205Z,2944.00
2018-09-03T08:58:14.227Z,3040.00
2018-09-03T08:59:14.240Z,3192.00
2018-09-03T09:00:14.252Z,3448.00
2018-09-03T09:01:14.272Z,3800.00
2018-09-03T09:02:14.285Z,4048.00
2018-09-03T09:03:14.301Z,4220.00
2018-09-03T09:04:14.318Z,4028.00
2018-09-03T09:05:14.335Z,4440.00
2018-09-03T09:06:14.353Z,4064.00
2018-09-03T09:07:14.364Z,3808.00
2018-09-03T09:08:14.383Z,3852.00
2018-09-03T09:09:14.402Z,3440.00
2018-09-03T09:10:14.412Z,3840.00
2018-09-03T09:11:14.437Z,3564.00
2018-09-03T09:12:14.444Z,3368.00
2018-09-03T09:13:14.494Z,3504.00
2018-09-03T09:14:14.491Z,3340.00
2018-09-03T09:15:14.492Z,3116.00
2018-09-03T09:16:14.508Z,3380.00
2018-09-03T09:17:14.527Z,2888.00
2018-09-03T09:18:14.551Z,3696.00
2018-09-03T09:19:14.558Z,3580.00
2018-09-03T09:20:14.572Z,3568.00
2018-09-03T09:21:14.590Z,3560.00
2018-09-03T09:22:14.607Z,3568.00
2018-09-03T09:23:14.628Z,3460.00
2018-09-03T09:24:14.677Z,3268.00
2018-09-03T09:25:14.656Z,3328.00
2018-09-03T09:26:14.674Z,3368.00
2018-09-03T09:27:14.731Z,3416.00
2018-09-03T09:28:14.760Z,3200.00
2018-09-03T09:29:14.763Z,2892.00
2018-09-03T09:30:14.736Z,3308.00
2018-09-03T09:31:14.751Z,3436.00
2018-09-03T09:32:14.761Z,3440.00
2018-09-03T09:33:14.781Z,2896.00
2018-09-03T09:34:14.798Z,3380.00
2018-09-03T09:35:14.810Z,3536.00
2018-09-03T09:36:14.826Z,3588.00
2018-09-03T09:37:14.849Z,3612.00
2018-09-03T09:38:14.864Z,3584.00
2018-09-03T09:39:14.873Z,3584.00
2018-09-03T09:40:14.894Z,3556.00
2018-09-03T09:41:14.915Z,3500.00
2018-09-03T09:42:14.950Z,3532.00
2018-09-03T09:43:14.947Z,3572.00
2018-09-03T09:44:14.953Z,3556.00
2018-09-03T09:45:14.975Z,3524.00
2018-09-03T09:46:14.987Z,3532.00
2018-09-03T09:47:15.010Z,3552.00
2018-09-03T09:48:15.031Z,3512.00
2018-09-03T09:49:15.045Z,3540.00
2018-09-03T09:50:15.361Z,3528.00
2018-09-03T09:51:15.063Z,3152.00
2018-09-03T09:52:15.082Z,3568.00
2018-09-03T09:53:15.097Z,3540.00
2018-09-03T09:54:15.140Z,3552.00
2018-09-03T09:55:15.134Z,3544.00
2018-09-03T09:56:15.142Z,3576.00
2018-09-03T09:57:15.203Z,3592.00
2018-09-03T09:58:15.240Z,3588.00
2018-09-03T09:59:15.219Z,3596.00
2018-09-03T10:00:15.210Z,3624.00
2018-09-03T10:01:15.229Z,3668.00
2018-09-03T10:02:15.237Z,3696.00
2018-09-03T10:03:15.255Z,3744.00
2018-09-03T10:04:15.312Z,3772.00
2018-09-03T10:05:15.298Z,3776.00
2018-09-03T10:06:15.305Z,3804.00
2018-09-03T10:07:15.423Z,3884.00
2018-09-03T10:08:15.543Z,3980.00
2018-09-03T10:09:15.446Z,3976.00
2018-09-03T10:10:15.371Z,3936.00
2018-09-03T10:11:15.380Z,3920.00
2018-09-03T10:12:15.390Z,3980.00
2018-09-03T10:13:15.405Z,4008.00
2018-09-03T10:14:15.424Z,4024.00
2018-09-03T10:15:15.440Z,4012.00
2018-09-03T10:16:15.454Z,4244.00
2018-09-03T10:17:15.468Z,3968.00
2018-09-03T10:18:15.492Z,3800.00
2018-09-03T10:19:15.508Z,3276.00
2018-09-03T10:20:15.515Z,3452.00
2018-09-03T10:22:15.558Z,4168.00
2018-09-03T10:23:15.566Z,3680.00
2018-09-03T10:24:15.585Z,4308.00
2018-09-03T10:25:15.602Z,3592.00
2018-09-03T10:26:15.624Z,4260.00
2018-09-03T10:27:15.631Z,4592.00
2018-09-03T10:28:15.645Z,4788.00
2018-09-03T10:29:15.687Z,4552.00
2018-09-03T10:30:15.682Z,4256.00
2018-09-03T10:31:15.726Z,4896.00
2018-09-03T10:32:15.712Z,4948.00
2018-09-03T10:33:15.726Z,4720.00
2018-09-03T10:34:15.743Z,4628.00
2018-09-03T10:35:15.767Z,4536.00
2018-09-03T10:36:15.777Z,4684.00
2018-09-03T10:37:15.801Z,4564.00
2018-09-03T10:38:15.867Z,4508.00
2018-09-03T10:39:15.826Z,4524.00
2018-09-03T10:40:15.843Z,4372.00
2018-09-03T10:41:15.859Z,4328.00
2018-09-03T10:42:15.883Z,3772.00
2018-09-03T10:43:15.890Z,3488.00
2018-09-03T10:44:15.908Z,3472.00
2018-09-03T10:45:15.924Z,3512.00
2018-09-03T10:46:15.943Z,3540.00
2018-09-03T10:47:16.083Z,3636.00
2018-09-03T10:48:15.981Z,3712.00
2018-09-03T10:49:15.991Z,3836.00
2018-09-03T10:50:16.007Z,3960.00
2018-09-03T10:51:16.027Z,4000.00
2018-09-03T10:52:16.044Z,4064.00
2018-09-03T10:53:16.057Z,4112.00
2018-09-03T10:54:16.078Z,4100.00
2018-09-03T10:55:16.090Z,4004.00
2018-09-03T10:56:16.117Z,3972.00
2018-09-03T10:57:16.129Z,3844.00
2018-09-03T10:58:16.143Z,3764.00
2018-09-03T10:59:16.159Z,3708.00
2018-09-03T11:00:16.174Z,3672.00
2018-09-03T11:01:16.190Z,3556.00
2018-09-03T11:02:16.210Z,3368.00
2018-09-03T11:03:16.275Z,3096.00
2018-09-03T11:04:16.254Z,2880.00
2018-09-03T11:05:16.341Z,2624.00
2018-09-03T11:06:16.275Z,2492.00
2018-09-03T11:07:16.295Z,2564.00
2018-09-03T11:08:16.309Z,2684.00
2018-09-03T11:09:16.327Z,2704.00
2018-09-03T11:10:16.356Z,2668.00
2018-09-03T11:11:16.359Z,2620.00
2018-09-03T11:12:16.373Z,2544.00
2018-09-03T11:13:16.390Z,2420.00
2018-09-03T11:14:16.477Z,2312.00
2018-09-03T11:15:16.425Z,2256.00
2018-09-03T11:16:16.440Z,2216.00
2018-09-03T11:17:17.091Z,2084.00
2018-09-03T11:18:16.476Z,1928.00
2018-09-03T11:19:16.496Z,1820.00
2018-09-03T11:20:16.508Z,1936.00
2018-09-03T11:21:16.908Z,2108.00
2018-09-03T11:22:16.542Z,2272.00
2018-09-03T11:23:16.562Z,2444.00
2018-09-03T11:24:16.573Z,2568.00
2018-09-03T11:25:16.589Z,2672.00
2018-09-03T11:26:16.606Z,2780.00
2018-09-03T11:27:16.627Z,2872.00
2018-09-03T11:28:16.654Z,2960.00
2018-09-03T11:29:16.667Z,3008.00
2018-09-03T11:30:16.672Z,2944.00
2018-09-03T11:31:16.694Z,2816.00
2018-09-03T11:32:16.706Z,2620.00
2018-09-03T11:33:16.721Z,2524.00
2018-09-03T11:34:16.744Z,2512.00
2018-09-03T11:35:16.763Z,2604.00
2018-09-03T11:36:16.799Z,2716.00
2018-09-03T11:37:16.788Z,2800.00
2018-09-03T11:38:16.813Z,2804.00
2018-09-03T11:39:16.824Z,2688.00
2018-09-03T11:40:16.864Z,2536.00
2018-09-03T11:41:16.863Z,2432.00
2018-09-03T11:42:16.873Z,2432.00
2018-09-03T11:43:16.888Z,2580.00
2018-09-03T11:44:16.995Z,2792.00
2018-09-03T11:45:16.949Z,2976.00
2018-09-03T11:46:16.941Z,3088.00
2018-09-03T11:47:16.998Z,3156.00
2018-09-03T11:48:16.989Z,3132.00
2018-09-03T11:49:17.028Z,2972.00
2018-09-03T11:50:17.010Z,2888.00
2018-09-03T11:51:17.023Z,2836.00
2018-09-03T11:52:17.039Z,2928.00
2018-09-03T11:53:17.056Z,3352.00
2018-09-03T11:54:17.080Z,3868.00
2018-09-03T11:55:17.094Z,3832.00
2018-09-03T11:56:17.109Z,3768.00
2018-09-03T11:57:17.126Z,4164.00
2018-09-03T11:58:17.276Z,4988.00
2018-09-03T11:59:17.164Z,5744.00
2018-09-03T12:00:17.183Z,6044.00
2018-09-03T12:01:17.194Z,6704.00
2018-09-03T12:02:17.211Z,6932.00
2018-09-03T12:03:17.227Z,6444.00
2018-09-03T12:04:17.243Z,6420.00
2018-09-03T12:05:17.267Z,6104.00
2018-09-03T12:06:17.281Z,5948.00
2018-09-03T12:07:17.305Z,5856.00
2018-09-03T12:08:17.314Z,6176.00
2018-09-03T12:09:17.391Z,6332.00
2018-09-03T12:10:17.346Z,6976.00
2018-09-03T12:11:17.367Z,7016.00
2018-09-03T12:12:17.488Z,6832.00
2018-09-03T12:13:17.402Z,6772.00
2018-09-03T12:14:17.434Z,6804.00
2018-09-03T12:15:17.442Z,6600.00
2018-09-03T12:16:17.456Z,6268.00
2018-09-03T12:17:17.474Z,5932.00
2018-09-03T12:18:17.490Z,5600.00
2018-09-03T12:19:17.508Z,5224.00
2018-09-03T12:20:17.543Z,4828.00
2018-09-03T12:21:17.619Z,4476.00
2018-09-03T12:22:17.562Z,4448.00
2018-09-03T12:23:17.849Z,4496.00
2018-09-03T12:24:18.189Z,4572.00
2018-09-03T12:25:17.616Z,4768.00
2018-09-03T12:26:17.629Z,4784.00
2018-09-03T12:27:17.653Z,4876.00
2018-09-03T12:28:17.667Z,4808.00
2018-09-03T12:29:17.686Z,4692.00
2018-09-03T12:30:17.729Z,4556.00
2018-09-03T12:31:17.725Z,4420.00
2018-09-03T12:32:17.739Z,4336.00
2018-09-03T12:33:17.752Z,4312.00
2018-09-03T12:34:17.770Z,4312.00
2018-09-03T12:35:17.800Z,4360.00
2018-09-03T12:36:17.805Z,4512.00
2018-09-03T12:37:17.868Z,4604.00
2018-09-03T12:38:17.845Z,4628.00
2018-09-03T12:39:17.859Z,4568.00
2018-09-03T12:41:17.997Z,4356.00
2018-09-03T12:42:17.953Z,4220.00
2018-09-03T12:43:17.929Z,4076.00
2018-09-03T12:44:17.992Z,3992.00
2018-09-03T12:45:17.989Z,3764.00
2018-09-03T12:46:18.032Z,3608.00
2018-09-03T12:47:18.425Z,3456.00
2018-09-03T12:48:18.118Z,3296.00
2018-09-03T12:49:18.203Z,3148.00
2018-09-03T12:50:18.436Z,2996.00
2018-09-03T12:51:18.175Z,2860.00
2018-09-03T12:52:18.130Z,2740.00
2018-09-03T12:53:18.102Z,2636.00